Time;durP1;ratioP1;P1;durP2;ratioP2;P2;SDS_P1;SDS_P2;PMS_P1;PMS_P2;Temp;Humidity;BMP_temperature;BMP_pressure;BME280_temperature;BME280_humidity;BME280_pressure;Samples;Min_cycle;Max_cycle;Signal;HPM_P1;HPM_P2
2023/08/15 00:00:24;;;;;;;10.50;8.02;;;19.10;99.90;;;;;;5042421;28;20514;-54
2023/08/15 00:02:50;;;;;;;11.20;8.35;;;19.10;99.90;;;;;;5042403;28;20060;-54
2023/08/15 00:05:16;;;;;;;11.68;8.13;;;19.10;99.90;;;;;;5038673;28;20036;-53
2023/08/15 00:07:41;;;;;;;13.82;8.93;;;19.10;99.90;;;;;;5015282;28;20071;-51
2023/08/15 00:10:07;;;;;;;10.50;7.68;;;19.10;99.90;;;;;;5044584;28;20530;-52
2023/08/15 00:12:33;;;;;;;12.13;9.18;;;19.10;99.90;;;;;;5042613;28;20151;-51
2023/08/15 00:14:59;;;;;;;10.18;8.23;;;19.10;99.90;;;;;;5047761;28;20033;-54
2023/08/15 00:17:24;;;;;;;10.30;7.85;;;19.10;99.90;;;;;;5044535;28;20044;-52
2023/08/15 00:19:50;;;;;;;9.30;7.72;;;19.10;99.90;;;;;;5041070;28;20029;-53
2023/08/15 00:22:17;;;;;;;9.35;8.23;;;19.10;99.90;;;;;;5027430;28;20345;-54
2023/08/15 00:24:43;;;;;;;10.45;8.45;;;19.10;99.90;;;;;;5040248;28;20045;-54
2023/08/15 00:27:09;;;;;;;9.80;8.63;;;19.10;99.90;;;;;;5031148;28;20044;-55
2023/08/15 00:29:35;;;;;;;10.45;7.45;;;19.10;99.90;;;;;;5044153;28;20029;-52
2023/08/15 00:32:00;;;;;;;11.82;8.65;;;19.10;99.90;;;;;;5038327;28;20408;-53
2023/08/15 00:34:26;;;;;;;15.07;9.02;;;19.10;99.90;;;;;;5045910;28;20416;-52
2023/08/15 00:36:52;;;;;;;14.60;9.15;;;19.10;99.90;;;;;;5030820;28;20418;-50
2023/08/15 00:39:18;;;;;;;12.05;8.60;;;19.10;99.90;;;;;;5044590;28;20072;-51
2023/08/15 00:41:44;;;;;;;11.00;8.73;;;19.10;99.90;;;;;;5045493;28;20501;-52
2023/08/15 00:44:09;;;;;;;12.40;8.88;;;19.10;99.90;;;;;;5045926;28;20160;-54
2023/08/15 00:46:37;;;;;;;12.95;8.68;;;19.00;99.90;;;;;;5052164;28;20510;-54
2023/08/15 00:49:04;;;;;;;13.25;8.75;;;19.00;99.90;;;;;;5038754;28;20037;-55
2023/08/15 00:51:32;;;;;;;10.90;8.45;;;19.00;99.90;;;;;;5044100;28;20059;-53
2023/08/15 00:53:59;;;;;;;11.57;7.22;;;19.00;99.90;;;;;;5024180;28;20041;-53
2023/08/15 00:56:25;;;;;;;12.68;8.32;;;19.00;99.90;;;;;;5009670;28;20342;-55
2023/08/15 00:58:50;;;;;;;12.40;8.02;;;18.90;99.90;;;;;;5039347;28;20037;-53
2023/08/15 01:01:17;;;;;;;13.68;8.18;;;18.90;99.90;;;;;;5047740;28;20103;-52
2023/08/15 01:03:43;;;;;;;13.77;9.00;;;18.90;99.90;;;;;;5045809;28;20047;-54
2023/08/15 01:06:09;;;;;;;11.95;8.07;;;18.90;99.90;;;;;;5043881;28;20037;-52
2023/08/15 01:08:35;;;;;;;13.43;8.05;;;18.80;99.90;;;;;;5043860;28;20503;-52
2023/08/15 01:11:02;;;;;;;10.93;7.32;;;18.80;99.90;;;;;;5019123;28;21562;-54
2023/08/15 01:14:03;;;;;;;14.43;7.88;;;18.70;99.90;;;;;;5054607;28;20038;-55
2023/08/15 01:16:36;;;;;;;13.75;8.30;;;18.70;99.90;;;;;;5032876;28;20131;-54
2023/08/15 01:19:06;;;;;;;9.82;7.22;;;18.70;99.90;;;;;;5044938;28;20045;-52
2023/08/15 01:21:38;;;;;;;11.60;8.27;;;18.60;99.90;;;;;;5028117;28;20055;-54
2023/08/15 01:24:05;;;;;;;11.98;8.07;;;18.60;99.90;;;;;;5047055;28;20072;-51
2023/08/15 01:26:31;;;;;;;11.55;8.43;;;18.70;99.90;;;;;;5027674;28;20187;-53
2023/08/15 01:28:57;;;;;;;11.45;8.25;;;18.70;99.90;;;;;;5043198;28;20611;-52
2023/08/15 01:31:58;;;;;;;10.90;7.68;;;18.70;99.90;;;;;;5036239;28;20072;-51
2023/08/15 01:34:35;;;;;;;11.77;7.47;;;18.60;99.90;;;;;;5023141;28;20056;-55
2023/08/15 01:37:09;;;;;;;14.43;8.75;;;18.60;99.90;;;;;;5039461;28;20416;-55
2023/08/15 01:39:38;;;;;;;11.77;8.02;;;18.60;99.90;;;;;;5028696;28;20064;-51
2023/08/15 01:42:05;;;;;;;13.30;8.45;;;18.60;99.90;;;;;;5044789;28;20048;-52
2023/08/15 01:44:33;;;;;;;11.38;7.63;;;18.60;99.90;;;;;;5042092;28;20103;-54
2023/08/15 01:46:59;;;;;;;12.93;9.18;;;18.60;99.90;;;;;;5040907;28;20044;-55
2023/08/15 01:49:25;;;;;;;14.82;9.30;;;18.60;99.90;;;;;;5050294;28;20036;-55
2023/08/15 01:51:54;;;;;;;17.90;9.63;;;18.60;99.90;;;;;;5043647;28;20167;-55
2023/08/15 01:54:20;;;;;;;14.23;8.77;;;18.60;99.90;;;;;;5031715;28;20035;-54
2023/08/15 01:56:45;;;;;;;10.25;8.65;;;18.60;99.90;;;;;;5046865;28;20502;-51
2023/08/15 01:59:11;;;;;;;15.95;9.88;;;18.60;99.90;;;;;;5048023;28;20566;-51
2023/08/15 02:01:37;;;;;;;11.48;9.15;;;18.60;99.90;;;;;;5035220;28;20041;-53
2023/08/15 02:04:02;;;;;;;13.18;8.30;;;18.60;99.90;;;;;;5046209;28;20052;-52
2023/08/15 02:06:28;;;;;;;14.02;9.85;;;18.60;99.90;;;;;;5047355;28;20196;-53
2023/08/15 02:08:54;;;;;;;14.18;9.57;;;18.70;99.90;;;;;;5045995;28;20044;-52
2023/08/15 02:11:20;;;;;;;20.10;9.88;;;18.70;99.90;;;;;;5046488;28;20128;-54
2023/08/15 02:13:45;;;;;;;13.07;8.07;;;18.70;99.90;;;;;;5046374;28;20463;-55
2023/08/15 02:16:11;;;;;;;10.32;8.18;;;18.70;99.90;;;;;;5044119;28;20038;-53
2023/08/15 02:18:37;;;;;;;10.68;8.05;;;18.70;99.90;;;;;;5042077;28;20116;-52
2023/08/15 02:21:03;;;;;;;12.27;9.30;;;18.60;99.90;;;;;;5041028;28;20114;-54
2023/08/15 02:23:28;;;;;;;12.77;10.10;;;18.60;99.90;;;;;;5035748;28;20048;-51
2023/08/15 02:25:54;;;;;;;10.73;7.78;;;18.50;99.90;;;;;;5044014;28;20120;-53
2023/08/15 02:28:20;;;;;;;15.05;10.00;;;18.50;99.90;;;;;;5029602;28;20057;-52
2023/08/15 02:30:45;;;;;;;13.63;10.05;;;18.50;99.90;;;;;;5042401;28;20470;-52
2023/08/15 02:33:11;;;;;;;14.32;10.05;;;18.40;99.90;;;;;;5047060;28;20814;-51
2023/08/15 02:35:41;;;;;;;12.82;8.77;;;18.40;99.90;;;;;;5046094;28;20132;-55
2023/08/15 02:38:07;;;;;;;10.48;7.60;;;18.40;99.90;;;;;;5043764;28;20092;-54
2023/08/15 02:40:33;;;;;;;10.25;8.05;;;18.40;99.90;;;;;;5045431;28;20052;-54
2023/08/15 02:42:59;;;;;;;12.77;9.38;;;18.30;99.90;;;;;;5043386;28;20033;-54
2023/08/15 02:45:25;;;;;;;10.63;8.27;;;18.30;99.90;;;;;;5046590;28;20047;-53
2023/08/15 02:47:50;;;;;;;16.23;10.20;;;18.30;99.90;;;;;;5046698;28;20105;-52
2023/08/15 02:50:16;;;;;;;13.27;9.30;;;18.30;99.90;;;;;;5033652;28;20124;-51
2023/08/15 02:52:42;;;;;;;14.88;9.27;;;18.30;99.90;;;;;;5017048;28;20029;-53
2023/08/15 02:55:08;;;;;;;11.55;8.32;;;18.20;99.90;;;;;;5013890;28;20045;-54
2023/08/15 02:57:33;;;;;;;12.60;9.40;;;18.20;99.90;;;;;;5046309;28;20041;-54
2023/08/15 02:59:59;;;;;;;14.10;9.20;;;18.20;99.90;;;;;;5044712;28;20037;-53
2023/08/15 03:02:25;;;;;;;8.68;7.20;;;18.20;99.90;;;;;;5040636;28;20041;-54
2023/08/15 03:04:51;;;;;;;11.13;8.45;;;18.20;99.90;;;;;;5052771;28;20407;-55
2023/08/15 03:07:16;;;;;;;14.90;8.77;;;18.30;99.90;;;;;;5039989;28;20042;-54
2023/08/15 03:09:42;;;;;;;12.40;8.90;;;18.20;99.90;;;;;;5033546;28;20084;-54
2023/08/15 03:12:08;;;;;;;12.88;9.15;;;18.30;99.90;;;;;;5043100;28;20037;-54
2023/08/15 03:14:33;;;;;;;15.90;9.68;;;18.30;99.90;;;;;;5031210;28;20110;-51
2023/08/15 03:17:01;;;;;;;13.40;9.88;;;18.30;99.90;;;;;;5022118;28;20033;-51
2023/08/15 03:19:26;;;;;;;14.70;10.80;;;18.40;99.90;;;;;;5034281;28;20256;-51
2023/08/15 03:21:52;;;;;;;13.75;9.80;;;18.40;99.90;;;;;;5035454;28;20492;-54
2023/08/15 03:24:18;;;;;;;13.38;8.25;;;18.40;99.90;;;;;;5047221;28;20098;-53
2023/08/15 03:26:43;;;;;;;14.38;8.57;;;18.40;99.90;;;;;;5047161;28;20039;-53
2023/08/15 03:29:09;;;;;;;11.90;8.13;;;18.50;99.90;;;;;;5030009;28;20041;-54
2023/08/15 03:31:35;;;;;;;12.93;9.60;;;18.50;99.90;;;;;;5043981;28;20487;-54
2023/08/15 03:34:01;;;;;;;12.23;9.07;;;18.50;99.90;;;;;;5046764;28;20045;-51
2023/08/15 03:36:26;;;;;;;18.00;9.82;;;18.60;99.90;;;;;;5048185;28;20049;-52
2023/08/15 03:38:52;;;;;;;11.40;8.57;;;18.60;99.90;;;;;;5039541;28;20218;-51
2023/08/15 03:41:18;;;;;;;12.88;10.30;;;18.60;99.90;;;;;;5042290;28;20123;-51
2023/08/15 03:43:44;;;;;;;14.65;9.05;;;18.60;99.90;;;;;;5049084;28;20044;-52
2023/08/15 03:46:10;;;;;;;13.10;8.77;;;18.60;99.90;;;;;;5048508;28;20047;-53
2023/08/15 03:48:36;;;;;;;14.43;9.10;;;18.70;99.90;;;;;;5057005;28;20488;-51
2023/08/15 03:51:02;;;;;;;13.60;8.82;;;18.70;99.90;;;;;;5045936;28;20052;-51
2023/08/15 03:53:28;;;;;;;12.30;6.95;;;18.70;99.90;;;;;;5029429;28;20404;-54
2023/08/15 03:55:54;;;;;;;8.80;7.60;;;18.80;99.90;;;;;;5007853;28;20119;-54
2023/08/15 03:58:21;;;;;;;12.30;7.50;;;18.80;99.90;;;;;;5043878;28;20056;-54
2023/08/15 04:00:48;;;;;;;11.88;7.97;;;18.80;99.90;;;;;;5034174;28;20047;-53
2023/08/15 04:03:15;;;;;;;14.30;8.15;;;18.80;99.90;;;;;;5032211;28;20587;-53
2023/08/15 04:05:48;;;;;;;15.02;8.73;;;18.80;99.90;;;;;;5044676;28;20064;-53
2023/08/15 04:08:15;;;;;;;12.60;8.70;;;18.80;99.90;;;;;;5033056;28;20225;-52
2023/08/15 04:10:41;;;;;;;15.45;9.45;;;18.70;99.90;;;;;;5021855;28;20119;-55
2023/08/15 04:13:10;;;;;;;14.77;8.65;;;18.80;99.90;;;;;;5037969;28;20039;-52
2023/08/15 04:15:36;;;;;;;13.05;9.00;;;18.70;99.90;;;;;;5026741;28;20505;-52
2023/08/15 04:18:07;;;;;;;9.05;7.63;;;18.70;99.90;;;;;;5046073;28;20041;-52
2023/08/15 04:20:41;;;;;;;10.65;6.97;;;18.70;99.90;;;;;;5047035;28;20073;-53
2023/08/15 04:23:08;;;;;;;12.13;9.75;;;18.60;99.90;;;;;;5032043;28;20129;-52
2023/08/15 04:25:34;;;;;;;10.23;6.90;;;18.60;99.90;;;;;;5044923;28;20058;-53
2023/08/15 04:28:00;;;;;;;12.57;9.27;;;18.60;99.90;;;;;;5040827;28;20040;-54
2023/08/15 04:30:26;;;;;;;11.18;8.10;;;18.60;99.90;;;;;;5040620;28;20085;-55
2023/08/15 04:32:52;;;;;;;13.45;9.32;;;18.50;99.90;;;;;;5043625;28;20095;-55
2023/08/15 04:35:18;;;;;;;11.70;7.75;;;18.50;99.90;;;;;;5044200;28;20373;-54
2023/08/15 04:37:43;;;;;;;11.65;7.30;;;18.50;99.90;;;;;;5043446;28;20041;-52
2023/08/15 04:40:12;;;;;;;11.35;7.32;;;18.50;99.90;;;;;;5030965;28;20056;-53
2023/08/15 04:42:41;;;;;;;16.92;8.45;;;18.50;99.90;;;;;;5044989;28;20045;-54
2023/08/15 04:45:08;;;;;;;9.93;7.05;;;18.50;99.90;;;;;;5047432;28;20086;-51
2023/08/15 04:47:34;;;;;;;11.65;6.65;;;18.50;99.90;;;;;;5045275;28;20062;-53
2023/08/15 04:50:00;;;;;;;8.77;5.57;;;18.40;99.90;;;;;;5047890;28;20412;-52
2023/08/15 04:52:26;;;;;;;10.63;6.05;;;18.40;99.90;;;;;;5043468;28;20032;-51
2023/08/15 04:54:51;;;;;;;11.98;6.63;;;18.40;99.90;;;;;;5048264;28;20484;-51
2023/08/15 04:57:17;;;;;;;12.75;6.70;;;18.40;99.90;;;;;;5046601;28;20168;-52
2023/08/15 04:59:43;;;;;;;11.38;6.43;;;18.40;99.90;;;;;;5053008;28;20415;-53
2023/08/15 05:02:09;;;;;;;12.60;7.20;;;18.40;99.90;;;;;;5047005;28;20045;-55
2023/08/15 05:04:35;;;;;;;12.23;6.60;;;18.40;99.90;;;;;;5029842;28;20053;-50
2023/08/15 05:07:00;;;;;;;13.45;6.90;;;18.40;99.90;;;;;;5046753;28;20202;-52
2023/08/15 05:09:29;;;;;;;9.05;5.90;;;18.40;99.90;;;;;;5029374;28;20048;-55
2023/08/15 05:11:55;;;;;;;10.38;6.10;;;18.40;99.90;;;;;;5040424;28;20037;-51
2023/08/15 05:14:22;;;;;;;12.52;6.05;;;18.40;99.90;;;;;;5033255;28;20191;-52
2023/08/15 05:16:48;;;;;;;14.73;6.68;;;18.40;99.90;;;;;;5034300;28;20124;-55
2023/08/15 05:19:14;;;;;;;11.05;5.63;;;18.30;99.90;;;;;;5036087;28;20124;-51
2023/08/15 05:21:41;;;;;;;11.13;6.43;;;18.40;99.90;;;;;;5050549;28;20040;-53
2023/08/15 05:24:07;;;;;;;11.60;6.22;;;18.30;99.90;;;;;;5046341;28;20528;-52
2023/08/15 05:26:32;;;;;;;11.35;6.80;;;18.30;99.90;;;;;;5042899;28;20080;-53
2023/08/15 05:28:58;;;;;;;12.40;7.43;;;18.30;99.90;;;;;;5026681;28;20033;-51
2023/08/15 05:31:24;;;;;;;13.45;7.10;;;18.30;99.90;;;;;;5045714;28;20147;-53
2023/08/15 05:33:50;;;;;;;10.68;6.15;;;18.30;99.90;;;;;;5042539;28;20044;-51
2023/08/15 05:36:15;;;;;;;12.73;6.95;;;18.30;99.90;;;;;;5036890;28;21030;-51
2023/08/15 05:38:41;;;;;;;11.98;6.57;;;18.30;99.90;;;;;;5046745;28;20094;-54
2023/08/15 05:41:07;;;;;;;11.60;6.20;;;18.30;99.90;;;;;;5048512;28;20452;-50
2023/08/15 05:43:33;;;;;;;13.00;6.15;;;18.30;99.90;;;;;;5003955;28;20041;-54
2023/08/15 05:45:59;;;;;;;9.95;6.20;;;18.30;99.90;;;;;;5042910;28;20029;-53
2023/08/15 05:48:24;;;;;;;10.57;6.13;;;18.30;99.90;;;;;;5038791;28;20040;-52
2023/08/15 05:50:50;;;;;;;13.60;6.35;;;18.40;99.90;;;;;;5023511;28;20374;-52
2023/08/15 05:53:16;;;;;;;13.15;6.45;;;18.30;99.90;;;;;;5040944;28;20139;-53
2023/08/15 05:55:42;;;;;;;15.38;6.47;;;18.40;99.90;;;;;;5037091;28;20041;-56
2023/08/15 05:58:08;;;;;;;11.48;5.22;;;18.40;99.90;;;;;;5021651;28;20037;-55
2023/08/15 06:00:34;;;;;;;14.13;5.50;;;18.50;99.90;;;;;;5026841;28;20156;-57
2023/08/15 06:03:00;;;;;;;10.93;4.65;;;18.60;99.90;;;;;;5038243;28;20067;-54
2023/08/15 06:05:30;;;;;;;11.40;6.15;;;18.70;99.90;;;;;;5040847;28;20044;-56
2023/08/15 06:07:56;;;;;;;12.80;5.10;;;18.80;99.90;;;;;;5045582;28;20045;-52
2023/08/15 06:10:22;;;;;;;17.05;6.13;;;18.80;99.90;;;;;;5042118;28;20603;-51
2023/08/15 06:12:48;;;;;;;18.13;5.25;;;19.00;99.90;;;;;;5031970;28;20033;-54
2023/08/15 06:15:14;;;;;;;11.02;5.40;;;19.00;99.90;;;;;;5036540;28;20051;-52
2023/08/15 06:17:41;;;;;;;12.23;5.75;;;19.10;99.90;;;;;;5039208;28;20041;-52
2023/08/15 06:20:08;;;;;;;7.82;4.78;;;19.20;99.90;;;;;;5031829;28;20124;-56
2023/08/15 06:22:33;;;;;;;14.48;5.75;;;19.30;99.90;;;;;;5019745;28;20053;-53
2023/08/15 06:24:59;;;;;;;16.73;5.55;;;19.30;99.90;;;;;;5029700;28;20389;-53
2023/08/15 06:27:25;;;;;;;13.35;5.45;;;19.40;99.90;;;;;;5037980;28;20049;-52
2023/08/15 06:29:51;;;;;;;11.30;5.28;;;19.40;99.90;;;;;;5024771;28;20289;-52
2023/08/15 06:32:27;;;;;;;15.77;6.18;;;19.50;99.90;;;;;;5041861;28;20503;-51
2023/08/15 06:34:53;;;;;;;12.40;4.60;;;19.50;99.90;;;;;;5046220;28;20033;-53
2023/08/15 06:37:18;;;;;;;10.65;4.57;;;19.60;99.90;;;;;;5014459;28;20072;-53
2023/08/15 06:39:44;;;;;;;12.80;5.13;;;19.70;99.90;;;;;;5026291;28;20505;-54
2023/08/15 06:42:13;;;;;;;12.98;4.93;;;19.70;99.90;;;;;;5040269;28;20053;-53
2023/08/15 06:44:41;;;;;;;20.23;6.28;;;19.90;99.90;;;;;;5039920;28;20045;-50
2023/08/15 06:47:06;;;;;;;10.65;4.53;;;19.90;99.90;;;;;;5040904;28;20052;-53
2023/08/15 06:49:32;;;;;;;11.38;4.32;;;19.90;99.90;;;;;;5029422;28;20053;-53
2023/08/15 06:51:58;;;;;;;15.52;5.15;;;20.00;99.90;;;;;;5040991;28;20742;-55
2023/08/15 06:54:24;;;;;;;12.45;5.18;;;20.10;99.90;;;;;;5045913;28;20033;-56
2023/08/15 06:56:49;;;;;;;8.13;4.10;;;20.20;99.90;;;;;;5028025;28;20052;-53
2023/08/15 06:59:15;;;;;;;9.75;4.78;;;20.20;99.90;;;;;;5041497;28;20034;-57
2023/08/15 07:01:40;;;;;;;11.05;4.65;;;20.30;99.90;;;;;;5022281;28;20043;-54
2023/08/15 07:04:06;;;;;;;14.13;5.50;;;20.30;99.90;;;;;;5028149;28;20048;-52
2023/08/15 07:06:32;;;;;;;12.55;5.13;;;20.30;99.90;;;;;;5058040;28;20669;-55
2023/08/15 07:08:59;;;;;;;11.98;4.22;;;20.40;99.90;;;;;;5036463;28;20064;-53
2023/08/15 07:11:25;;;;;;;11.95;3.83;;;20.40;99.90;;;;;;5046581;28;20575;-55
2023/08/15 07:13:50;;;;;;;8.98;4.18;;;20.40;99.90;;;;;;5040123;28;20033;-50
2023/08/15 07:16:16;;;;;;;11.25;4.07;;;20.40;99.90;;;;;;5032081;28;20493;-52
2023/08/15 07:18:42;;;;;;;14.63;5.03;;;20.40;99.90;;;;;;5037856;28;20131;-56
2023/08/15 07:21:08;;;;;;;14.50;3.95;;;20.40;99.90;;;;;;5047653;28;20041;-58
2023/08/15 07:23:35;;;;;;;8.82;3.55;;;20.40;99.90;;;;;;5041061;28;20049;-53
2023/08/15 07:26:01;;;;;;;11.57;4.10;;;20.40;99.90;;;;;;5038840;28;20048;-55
2023/08/15 07:28:28;;;;;;;12.38;4.20;;;20.50;99.90;;;;;;5043640;28;20040;-52
2023/08/15 07:30:55;;;;;;;10.85;4.50;;;20.60;99.90;;;;;;5044484;28;20520;-53
2023/08/15 07:33:21;;;;;;;10.05;4.22;;;20.90;99.90;;;;;;5045638;28;20450;-54
2023/08/15 07:35:47;;;;;;;12.68;4.00;;;21.00;99.90;;;;;;5042015;28;20055;-56
2023/08/15 07:38:14;;;;;;;9.02;3.38;;;21.20;99.90;;;;;;5054184;28;20037;-52
2023/08/15 07:40:40;;;;;;;12.70;4.07;;;21.30;99.90;;;;;;5042871;28;20132;-55
2023/08/15 07:43:05;;;;;;;7.95;3.53;;;21.40;99.90;;;;;;5051503;28;20544;-54
2023/08/15 07:45:31;;;;;;;11.07;3.90;;;21.50;99.90;;;;;;5039510;28;20040;-57
2023/08/15 07:48:44;;;;;;;6.00;2.80;;;21.50;99.90;;;;;;5036630;28;20049;-57
2023/08/15 07:51:10;;;;;;;6.35;2.50;;;21.40;99.90;;;;;;5048525;28;20037;-53
2023/08/15 07:53:36;;;;;;;8.05;2.42;;;21.30;99.90;;;;;;5027770;28;20110;-53
2023/08/15 07:56:02;;;;;;;8.50;2.63;;;21.00;99.90;;;;;;5025445;28;20472;-53
2023/08/15 07:58:28;;;;;;;4.78;2.17;;;21.00;99.90;;;;;;5049483;28;20412;-50
2023/08/15 08:00:54;;;;;;;7.30;2.13;;;21.00;99.90;;;;;;5046482;28;20059;-52
2023/08/15 08:03:20;;;;;;;4.78;1.85;;;21.00;99.90;;;;;;5043121;28;20404;-55
2023/08/15 08:05:46;;;;;;;9.15;2.30;;;21.10;99.90;;;;;;5042384;28;20040;-54
2023/08/15 08:08:13;;;;;;;9.75;2.83;;;21.20;99.90;;;;;;5045885;28;20488;-50
2023/08/15 08:10:39;;;;;;;8.60;2.80;;;21.30;99.90;;;;;;5040598;28;20484;-52
2023/08/15 08:13:06;;;;;;;7.30;2.50;;;21.50;99.90;;;;;;5033394;28;20029;-51
2023/08/15 08:15:32;;;;;;;7.95;2.55;;;21.80;99.90;;;;;;5044889;28;20531;-51
2023/08/15 08:17:58;;;;;;;9.40;2.97;;;22.00;99.90;;;;;;5047627;28;20072;-51
2023/08/15 08:20:25;;;;;;;7.18;2.88;;;22.10;99.90;;;;;;5031511;28;20541;-50
2023/08/15 08:22:51;;;;;;;9.63;2.88;;;22.00;99.90;;;;;;5039781;28;20443;-55
2023/08/15 08:25:20;;;;;;;8.32;2.90;;;22.00;99.90;;;;;;5034477;28;20055;-56
2023/08/15 08:27:46;;;;;;;5.32;2.10;;;22.10;99.90;;;;;;5036025;28;20094;-52
2023/08/15 08:30:14;;;;;;;10.20;2.42;;;22.30;99.90;;;;;;5041465;28;20064;-55
2023/08/15 08:32:40;;;;;;;7.03;2.30;;;22.40;99.90;;;;;;5043733;28;20037;-53
2023/08/15 08:35:06;;;;;;;9.00;2.45;;;22.50;99.90;;;;;;5047278;28;20499;-53
2023/08/15 08:37:32;;;;;;;6.28;2.53;;;22.30;99.90;;;;;;5044662;28;20051;-54
2023/08/15 08:39:58;;;;;;;9.98;2.60;;;22.10;99.90;;;;;;5048812;28;20036;-55
2023/08/15 08:42:24;;;;;;;5.13;2.17;;;22.00;99.90;;;;;;5044897;28;20053;-54
2023/08/15 08:44:50;;;;;;;9.32;2.75;;;22.00;99.90;;;;;;5048285;28;20416;-55
2023/08/15 08:47:21;;;;;;;7.30;2.40;;;22.00;99.90;;;;;;5041397;28;20069;-55
2023/08/15 08:49:48;;;;;;;5.47;2.28;;;22.20;99.90;;;;;;5040753;28;20044;-54
2023/08/15 08:52:15;;;;;;;7.30;2.08;;;22.30;99.90;;;;;;5044842;28;20138;-56
2023/08/15 08:54:41;;;;;;;6.35;1.90;;;22.40;99.90;;;;;;5020428;28;20045;-55
2023/08/15 08:57:07;;;;;;;5.10;2.10;;;22.50;99.90;;;;;;5043811;28;20037;-53
2023/08/15 08:59:35;;;;;;;5.97;1.98;;;22.50;99.90;;;;;;5014405;28;20120;-55
2023/08/15 09:02:01;;;;;;;5.03;1.85;;;22.40;99.90;;;;;;5025878;28;20139;-54
2023/08/15 09:04:27;;;;;;;4.35;2.10;;;22.40;99.90;;;;;;5026922;28;20540;-54
2023/08/15 09:06:53;;;;;;;7.55;1.83;;;22.50;99.90;;;;;;5030995;28;20530;-52
2023/08/15 09:09:19;;;;;;;6.50;2.72;;;22.70;99.90;;;;;;5043590;28;20041;-55
2023/08/15 09:11:47;;;;;;;8.93;2.72;;;22.80;99.90;;;;;;5041752;28;20531;-54
2023/08/15 09:14:14;;;;;;;9.15;2.70;;;23.00;99.90;;;;;;5022270;28;20048;-51
2023/08/15 09:16:48;;;;;;;6.47;2.45;;;23.00;99.90;;;;;;5050276;28;20627;-54
2023/08/15 09:19:15;;;;;;;11.02;2.95;;;22.80;99.90;;;;;;5045315;28;20040;-56
2023/08/15 09:21:41;;;;;;;8.13;2.42;;;22.40;99.90;;;;;;5050913;28;20061;-52
2023/08/15 09:24:07;;;;;;;5.28;2.55;;;22.20;99.90;;;;;;5045732;28;20048;-50
2023/08/15 09:26:34;;;;;;;4.50;2.30;;;22.10;99.90;;;;;;5031248;28;20093;-55
2023/08/15 09:29:03;;;;;;;6.32;2.60;;;22.10;99.90;;;;;;5030077;28;20531;-51
2023/08/15 09:31:32;;;;;;;5.38;2.33;;;22.20;99.90;;;;;;5031217;28;20037;-53
2023/08/15 09:33:58;;;;;;;3.45;1.85;;;22.40;99.90;;;;;;5029360;28;20275;-53
2023/08/15 09:36:24;;;;;;;5.90;2.20;;;22.40;99.90;;;;;;5044248;28;20116;-52
2023/08/15 09:38:58;;;;;;;9.27;2.20;;;22.40;99.90;;;;;;5044928;28;20044;-53
2023/08/15 09:41:25;;;;;;;;;;;22.20;99.90;;;;;;5042278;28;20052;-56
2023/08/15 09:43:52;;;;;;;4.78;2.15;;;22.20;99.90;;;;;;5039344;28;19916;-56
2023/08/15 09:46:21;;;;;;;7.40;2.80;;;22.10;99.90;;;;;;5041140;28;20515;-52
2023/08/15 09:48:48;;;;;;;7.63;2.80;;;21.90;99.90;;;;;;5051103;28;20040;-50
2023/08/15 09:51:15;;;;;;;10.98;2.15;;;21.90;99.90;;;;;;5048077;28;20045;-54
2023/08/15 09:53:46;;;;;;;7.63;2.55;;;22.00;99.90;;;;;;5050544;28;20341;-51
2023/08/15 09:56:13;;;;;;;8.02;2.63;;;22.20;99.90;;;;;;5048195;28;20032;-52
2023/08/15 09:58:39;;;;;;;6.15;2.10;;;22.50;99.90;;;;;;5047991;28;20516;-52
2023/08/15 10:01:08;;;;;;;3.45;1.30;;;22.90;99.90;;;;;;5049113;28;20037;-51
2023/08/15 10:03:38;;;;;;;3.38;1.80;;;23.10;99.90;;;;;;5042640;28;20052;-56
2023/08/15 10:06:08;;;;;;;4.78;1.70;;;23.40;99.90;;;;;;5043580;28;20037;-50
2023/08/15 10:08:38;;;;;;;6.10;1.65;;;23.50;99.90;;;;;;5046543;28;20063;-50
2023/08/15 10:11:07;;;;;;;7.30;2.20;;;23.50;99.90;;;;;;5037614;28;20487;-51
2023/08/15 10:13:36;;;;;;;5.60;1.60;;;23.80;99.90;;;;;;5041981;28;20041;-51
2023/08/15 10:16:04;;;;;;;5.53;1.50;;;24.00;99.90;;;;;;5045809;28;20045;-52
2023/08/15 10:18:31;;;;;;;3.33;1.40;;;24.30;99.90;;;;;;5049165;28;20040;-50
2023/08/15 10:20:58;;;;;;;5.68;1.35;;;24.40;99.90;;;;;;5043109;28;20045;-56
2023/08/15 10:23:30;;;;;;;4.38;1.70;;;24.30;99.90;;;;;;5030673;28;20063;-52
2023/08/15 10:25:57;;;;;;;3.95;1.40;;;24.20;99.80;;;;;;5047831;28;20053;-53
2023/08/15 10:28:25;;;;;;;4.18;1.23;;;24.20;99.90;;;;;;5027313;28;20052;-53
2023/08/15 10:30:51;;;;;;;5.55;1.90;;;24.10;99.90;;;;;;5043868;28;20735;-53
2023/08/15 10:33:21;;;;;;;5.28;1.90;;;24.10;99.90;;;;;;5038198;28;20098;-55
2023/08/15 10:35:56;;;;;;;7.70;1.65;;;24.20;99.90;;;;;;5050607;28;20402;-53
2023/08/15 10:38:27;;;;;;;4.65;1.60;;;24.30;99.90;;;;;;5039379;28;20113;-55
2023/08/15 10:41:00;;;;;;;16.58;2.10;;;24.20;99.90;;;;;;5047994;28;20048;-53
2023/08/15 10:43:28;;;;;;;5.40;1.77;;;24.00;98.60;;;;;;5046457;28;20047;-52
2023/08/15 10:45:57;;;;;;;5.53;1.75;;;23.50;99.00;;;;;;5048722;28;20045;-56
2023/08/15 10:48:42;;;;;;;5.32;2.00;;;23.40;99.60;;;;;;5048127;28;20041;-53
2023/08/15 10:51:32;;;;;;;4.68;1.98;;;23.50;99.90;;;;;;5039255;28;20056;-50
2023/08/15 10:53:59;;;;;;;5.07;1.90;;;23.70;99.90;;;;;;5047020;28;20078;-53
2023/08/15 10:56:30;;;;;;;5.63;2.30;;;24.00;99.90;;;;;;5050507;28;20037;-56
2023/08/15 10:58:57;;;;;;;4.03;1.63;;;24.10;99.90;;;;;;5044505;28;20053;-56
2023/08/15 11:01:26;;;;;;;5.75;1.70;;;24.10;99.70;;;;;;5028239;28;20041;-52
2023/08/15 11:03:54;;;;;;;3.47;1.45;;;23.90;99.70;;;;;;5046702;28;20040;-55
2023/08/15 11:06:20;;;;;;;5.55;1.70;;;24.00;99.70;;;;;;5045614;28;20086;-54
2023/08/15 11:08:48;;;;;;;5.88;2.28;;;24.10;99.50;;;;;;5047900;28;20052;-51
2023/08/15 11:11:15;;;;;;;5.25;1.85;;;24.10;99.40;;;;;;5040788;28;20361;-51
2023/08/15 11:14:01;;;;;;;4.28;1.67;;;24.00;99.20;;;;;;5026512;28;20052;-53
2023/08/15 11:16:27;;;;;;;4.63;1.58;;;24.10;99.90;;;;;;5037470;28;20057;-55
2023/08/15 11:18:57;;;;;;;3.58;1.40;;;24.20;99.80;;;;;;5031820;28;20123;-57
2023/08/15 11:21:27;;;;;;;4.35;1.30;;;24.20;99.80;;;;;;5041208;28;20626;-52
2023/08/15 11:23:54;;;;;;;3.95;1.42;;;24.40;99.30;;;;;;5056730;28;20699;-53
2023/08/15 11:26:23;;;;;;;3.97;1.70;;;24.60;99.40;;;;;;5037598;28;20412;-53
2023/08/15 11:28:53;;;;;;;4.35;1.58;;;24.80;98.90;;;;;;5039383;28;20045;-51
2023/08/15 11:31:19;;;;;;;7.57;2.28;;;24.80;98.60;;;;;;5047342;28;20125;-57
2023/08/15 11:33:51;;;;;;;7.25;2.10;;;24.10;98.70;;;;;;5027633;28;20112;-52
2023/08/15 11:36:17;;;;;;;4.93;1.75;;;24.00;99.40;;;;;;5029028;28;20091;-51
2023/08/15 11:39:22;;;;;;;6.40;1.92;;;23.90;99.30;;;;;;5029559;28;20454;-51
2023/08/15 11:41:48;;;;;;;3.60;1.60;;;23.40;99.20;;;;;;5029089;28;20045;-54
2023/08/15 11:44:18;;;;;;;5.03;2.10;;;23.30;99.90;;;;;;5043301;28;20056;-52
2023/08/15 11:46:44;;;;;;;4.57;1.95;;;23.10;99.90;;;;;;5048335;28;20040;-50
2023/08/15 11:49:21;;;;;;;6.88;1.85;;;23.20;99.90;;;;;;5049744;28;20029;-52
2023/08/15 11:51:48;;;;;;;5.32;1.73;;;23.40;99.90;;;;;;5049073;28;20037;-54
2023/08/15 11:54:14;;;;;;;6.00;1.77;;;23.60;99.90;;;;;;5031366;28;20067;-54
2023/08/15 11:56:53;;;;;;;5.45;1.98;;;23.90;99.90;;;;;;5047114;28;20032;-53
2023/08/15 11:59:19;;;;;;;5.28;1.35;;;24.20;99.80;;;;;;5044006;28;20037;-54
2023/08/15 12:01:46;;;;;;;6.53;1.88;;;24.30;99.90;;;;;;5027395;28;20043;-56
2023/08/15 12:04:13;;;;;;;4.97;1.58;;;24.40;99.30;;;;;;5048490;28;20178;-57
2023/08/15 12:06:39;;;;;;;5.10;1.85;;;24.40;99.50;;;;;;5052758;28;20518;-53
2023/08/15 12:09:08;;;;;;;3.38;1.95;;;24.30;99.30;;;;;;5024930;28;20047;-52
2023/08/15 12:11:34;;;;;;;9.43;2.22;;;24.30;99.60;;;;;;5039011;28;20045;-54
2023/08/15 12:14:00;;;;;;;4.30;1.95;;;24.00;99.70;;;;;;5033692;28;20043;-53
2023/08/15 12:16:26;;;;;;;5.82;1.90;;;24.10;99.90;;;;;;5047544;28;20068;-55
2023/08/15 12:18:52;;;;;;;3.55;1.50;;;24.20;99.90;;;;;;5052815;28;20063;-54
2023/08/15 12:21:18;;;;;;;6.03;2.15;;;24.20;99.90;;;;;;5034264;28;20546;-54
2023/08/15 12:23:44;;;;;;;5.00;1.70;;;24.20;99.90;;;;;;5043074;28;20117;-57
2023/08/15 12:26:10;;;;;;;5.28;1.80;;;24.30;99.90;;;;;;5051006;28;20057;-54
2023/08/15 12:28:36;;;;;;;5.68;2.00;;;24.30;99.70;;;;;;5052220;28;20491;-52
2023/08/15 12:31:02;;;;;;;7.35;1.90;;;24.30;99.80;;;;;;5038584;28;20446;-57
2023/08/15 12:33:33;;;;;;;5.70;1.88;;;24.40;99.80;;;;;;5049360;28;20500;-53
2023/08/15 12:35:59;;;;;;;8.25;2.28;;;24.50;99.70;;;;;;5057957;28;20082;-55
2023/08/15 12:38:25;;;;;;;6.28;2.08;;;24.60;99.50;;;;;;5047446;28;20052;-53
2023/08/15 12:40:51;;;;;;;6.35;1.92;;;24.60;99.40;;;;;;5045274;28;20183;-56